createdAt,value
2019-02-02T00:00:00.901Z,100.00
2019-02-02T00:02:31.282Z,100.00
2019-02-02T00:05:01.534Z,100.00
2019-02-02T00:07:32.271Z,100.00
2019-02-02T00:10:02.535Z,100.00
2019-02-02T00:12:32.709Z,100.00
2019-02-02T00:15:02.902Z,100.00
2019-02-02T00:17:34.589Z,100.00
2019-02-02T00:20:05.494Z,100.00
2019-02-02T00:22:36.280Z,100.00
2019-02-02T00:25:07.433Z,100.00
2019-02-02T00:27:41.383Z,100.00
2019-02-02T00:30:11.159Z,100.00
2019-02-02T00:32:41.214Z,100.00
2019-02-02T00:35:11.374Z,100.00
2019-02-02T00:37:41.339Z,100.00
2019-02-02T00:40:11.610Z,100.00
2019-02-02T00:42:42.092Z,100.00
2019-02-02T00:45:12.522Z,100.00
2019-02-02T00:47:42.962Z,100.00
2019-02-02T00:50:13.660Z,100.00
2019-02-02T00:52:43.787Z,100.00
2019-02-02T00:55:14.069Z,100.00
2019-02-02T00:57:53.129Z,100.00
2019-02-02T01:00:16.963Z,100.00
2019-02-02T01:02:47.559Z,100.00
2019-02-02T01:05:18.101Z,100.00
2019-02-02T01:07:48.465Z,100.00
2019-02-02T01:10:23.071Z,100.00
2019-02-02T01:12:53.221Z,100.00
2019-02-02T01:15:23.514Z,100.00
2019-02-02T01:17:54.607Z,100.00
2019-02-02T01:23:51.483Z,100.00
2019-02-02T01:26:21.482Z,100.00
2019-02-02T01:28:51.831Z,100.00
2019-02-02T01:31:23.658Z,100.00
2019-02-02T01:39:10.531Z,100.00
2019-02-02T01:43:47.327Z,100.00
2019-02-02T01:47:31.352Z,100.00
2019-02-02T01:51:14.591Z,100.00
2019-02-02T01:55:00.310Z,100.00
2019-02-02T01:58:54.020Z,100.00
2019-02-02T02:02:32.118Z,100.00
2019-02-02T02:06:15.149Z,100.00
2019-02-02T02:22:57.014Z,100.00
2019-02-02T02:37:32.442Z,100.00
2019-02-02T02:53:48.874Z,100.00
2019-02-02T02:57:30.786Z,100.00
2019-02-02T03:05:23.096Z,100.00
2019-02-02T03:09:54.314Z,100.00
2019-02-02T03:13:54.623Z,100.00
2019-02-02T03:21:08.222Z,100.00
2019-02-02T03:32:56.771Z,100.00
2019-02-02T03:37:11.373Z,100.00
2019-02-02T03:39:20.843Z,100.00
2019-02-02T03:41:50.796Z,100.00
2019-02-02T03:44:21.412Z,100.00
2019-02-02T03:46:51.444Z,100.00
2019-02-02T03:49:21.709Z,100.00
2019-02-02T03:51:52.445Z,100.00
2019-02-02T03:54:22.455Z,100.00
2019-02-02T03:56:53.182Z,100.00
2019-02-02T03:59:23.167Z,100.00
2019-02-02T04:01:53.327Z,100.00
2019-02-02T04:04:23.737Z,100.00
2019-02-02T04:06:53.979Z,100.00
2019-02-02T04:09:24.213Z,100.00
2019-02-02T04:11:54.454Z,100.00
2019-02-02T04:14:24.682Z,100.00
2019-02-02T04:16:54.719Z,100.00
2019-02-02T04:19:24.797Z,100.00
2019-02-02T04:21:54.724Z,100.00
2019-02-02T04:24:25.589Z,100.00
2019-02-02T04:26:56.221Z,100.00
2019-02-02T04:29:26.880Z,100.00
2019-02-02T04:31:57.025Z,100.00
2019-02-02T04:34:27.783Z,100.00
2019-02-02T04:36:57.778Z,100.00
2019-02-02T04:39:28.895Z,100.00
2019-02-02T04:41:59.096Z,100.00
2019-02-02T04:44:29.556Z,100.00
2019-02-02T04:46:59.576Z,100.00
2019-02-02T04:49:29.484Z,100.00
2019-02-02T04:52:00.245Z,100.00
2019-02-02T04:54:30.352Z,100.00
2019-02-02T04:57:00.834Z,100.00
2019-02-02T05:03:16.297Z,100.00
2019-02-02T05:05:46.468Z,100.00
2019-02-02T05:08:16.941Z,100.00
2019-02-02T05:10:47.107Z,100.00
2019-02-02T05:13:17.016Z,100.00
2019-02-02T05:15:47.676Z,100.00
2019-02-02T05:18:18.466Z,100.00
2019-02-02T05:20:48.385Z,100.00
2019-02-02T05:23:18.481Z,100.00
2019-02-02T05:25:48.732Z,100.00
2019-02-02T05:28:18.663Z,100.00
2019-02-02T05:30:49.124Z,100.00
2019-02-02T05:33:19.132Z,100.00
2019-02-02T05:35:49.372Z,100.00
2019-02-02T05:38:19.352Z,100.00
2019-02-02T05:40:49.700Z,100.00
2019-02-02T05:43:19.883Z,100.00
2019-02-02T05:45:50.016Z,100.00
2019-02-02T05:48:19.920Z,100.00
2019-02-02T05:50:50.413Z,100.00
2019-02-02T05:53:20.321Z,100.00
2019-02-02T05:55:50.270Z,100.00
2019-02-02T05:58:20.341Z,100.00
2019-02-02T06:00:52.968Z,100.00
2019-02-02T06:03:22.993Z,100.00
2019-02-02T06:05:53.453Z,100.00
2019-02-02T06:08:23.709Z,100.00
2019-02-02T06:10:53.644Z,100.00
2019-02-02T06:13:23.569Z,100.00
2019-02-02T06:15:53.483Z,100.00
2019-02-02T06:18:23.471Z,100.00
2019-02-02T06:20:53.684Z,100.00
2019-02-02T06:23:23.940Z,100.00
2019-02-02T06:25:54.424Z,100.00
2019-02-02T06:28:24.726Z,100.00
2019-02-02T06:30:55.232Z,100.00
2019-02-02T06:33:25.354Z,100.00
2019-02-02T06:35:56.736Z,100.00
2019-02-02T06:38:26.829Z,100.00
2019-02-02T06:40:56.822Z,100.00
2019-02-02T06:43:26.732Z,100.00
2019-02-02T06:45:56.964Z,100.00
2019-02-02T06:48:26.892Z,100.00
2019-02-02T06:50:57.032Z,100.00
2019-02-02T06:53:27.237Z,100.00
2019-02-02T06:55:57.860Z,100.00
2019-02-02T06:58:28.197Z,100.00
2019-02-02T07:00:58.849Z,100.00
2019-02-02T07:03:29.393Z,100.00
2019-02-02T07:05:59.401Z,100.00
2019-02-02T07:08:29.401Z,100.00
2019-02-02T07:10:59.824Z,100.00
2019-02-02T07:13:30.787Z,100.00
2019-02-02T07:16:00.975Z,100.00
2019-02-02T07:18:31.559Z,100.00
2019-02-02T07:21:01.841Z,100.00
2019-02-02T07:23:32.572Z,100.00
2019-02-02T07:26:02.509Z,100.00
2019-02-02T07:32:23.756Z,100.00
2019-02-02T07:34:54.269Z,100.00
2019-02-02T07:37:24.161Z,100.00
2019-02-02T07:39:54.850Z,100.00
2019-02-02T07:42:25.570Z,100.00
2019-02-02T07:44:56.519Z,100.00
2019-02-02T07:47:26.707Z,100.00
2019-02-02T07:53:47.784Z,100.00
2019-02-02T07:56:17.736Z,100.00
2019-02-02T07:58:47.873Z,100.00
2019-02-02T08:01:18.541Z,100.00
2019-02-02T08:03:48.469Z,100.00
2019-02-02T08:06:19.475Z,100.00
2019-02-02T08:08:49.403Z,100.00
2019-02-02T08:11:19.327Z,100.00
2019-02-02T08:13:49.263Z,100.00
2019-02-02T08:16:19.948Z,100.00
2019-02-02T08:18:49.894Z,100.00
2019-02-02T08:21:20.057Z,100.00
2019-02-02T08:23:50.315Z,100.00
2019-02-02T08:26:21.070Z,100.00
2019-02-02T08:28:51.243Z,100.00
2019-02-02T08:31:21.412Z,100.00
2019-02-02T08:33:51.612Z,100.00
2019-02-02T08:36:22.131Z,100.00
2019-02-02T08:38:52.470Z,100.00
2019-02-02T08:44:55.144Z,100.00
2019-02-02T08:47:26.014Z,100.00
2019-02-02T08:49:56.202Z,100.00
2019-02-02T08:52:26.344Z,100.00
2019-02-02T08:54:56.357Z,100.00
2019-02-02T08:57:26.330Z,100.00
2019-02-02T09:11:25.158Z,100.00
2019-02-02T09:13:55.528Z,100.00
2019-02-02T09:16:26.312Z,100.00
2019-02-02T09:18:58.322Z,100.00
2019-02-02T09:21:28.423Z,100.00
2019-02-02T09:23:58.330Z,100.00
2019-02-02T09:26:28.355Z,100.00
2019-02-02T09:28:58.351Z,100.00
2019-02-02T09:31:28.787Z,100.00
2019-02-02T09:33:58.960Z,100.00
2019-02-02T09:36:29.300Z,100.00
2019-02-02T09:38:59.567Z,100.00
2019-02-02T09:41:30.189Z,100.00
2019-02-02T09:44:00.115Z,100.00
2019-02-02T09:46:30.323Z,100.00
2019-02-02T09:49:00.756Z,100.00
2019-02-02T09:51:30.750Z,100.00
2019-02-02T09:54:00.658Z,100.00
2019-02-02T09:56:32.862Z,100.00
2019-02-02T09:59:03.077Z,100.00
2019-02-02T10:01:33.972Z,100.00
2019-02-02T10:04:04.369Z,100.00
2019-02-02T10:06:35.196Z,100.00
2019-02-02T10:09:08.185Z,100.00
2019-02-02T10:11:39.054Z,100.00
2019-02-02T10:14:09.473Z,100.00
2019-02-02T10:16:39.610Z,100.00
2019-02-02T10:19:10.154Z,100.00
2019-02-02T10:21:41.235Z,100.00
2019-02-02T10:24:11.859Z,100.00
2019-02-02T10:26:42.070Z,100.00
2019-02-02T10:29:12.478Z,100.00
2019-02-02T10:31:42.392Z,100.00
2019-02-02T10:34:13.206Z,100.00
2019-02-02T10:36:43.959Z,100.00
2019-02-02T10:39:14.107Z,100.00
2019-02-02T10:41:44.995Z,100.00
2019-02-02T10:44:15.109Z,100.00
2019-02-02T10:46:45.299Z,99.60
2019-02-02T10:49:15.798Z,98.26
2019-02-02T10:51:46.749Z,96.46
2019-02-02T10:54:17.301Z,93.88
2019-02-02T10:56:47.684Z,93.50
2019-02-02T10:59:17.934Z,93.92
2019-02-02T11:01:51.213Z,91.41
2019-02-02T11:04:19.823Z,88.36
2019-02-02T11:06:50.025Z,88.55
2019-02-02T11:09:20.224Z,88.66
2019-02-02T11:11:50.392Z,88.86
2019-02-02T11:14:20.597Z,87.28
2019-02-02T11:16:50.512Z,87.49
2019-02-02T11:19:20.862Z,87.75
2019-02-02T11:21:50.881Z,88.00
2019-02-02T11:24:20.820Z,86.05
2019-02-02T11:26:50.891Z,83.91
2019-02-02T11:29:21.260Z,82.70
2019-02-02T11:32:02.201Z,79.84
2019-02-02T11:34:23.070Z,78.89
2019-02-02T11:36:53.323Z,79.16
2019-02-02T11:39:23.768Z,77.09
2019-02-02T11:41:54.083Z,78.72
2019-02-02T11:44:23.988Z,83.37
2019-02-02T11:50:45.425Z,80.21
2019-02-02T12:02:49.632Z,77.50
2019-02-02T12:05:16.361Z,75.06
2019-02-02T12:22:42.267Z,74.64
2019-02-02T12:35:36.132Z,78.57
2019-02-02T12:48:36.073Z,75.27
2019-02-02T13:13:24.089Z,69.55
2019-02-02T13:34:03.128Z,68.77
2019-02-02T13:57:13.488Z,77.95
2019-02-02T13:59:43.666Z,77.28
2019-02-02T14:08:36.823Z,73.84
2019-02-02T14:11:06.904Z,78.74
2019-02-02T14:27:50.443Z,80.61
2019-02-02T14:30:23.016Z,86.04
2019-02-02T14:35:29.591Z,85.40
2019-02-02T14:38:03.345Z,84.41
2019-02-02T14:51:55.897Z,89.79
2019-02-02T14:54:26.133Z,90.66
2019-02-02T15:16:16.939Z,92.84
2019-02-02T15:18:46.930Z,93.58
2019-02-02T15:21:17.342Z,92.14
2019-02-02T15:35:10.147Z,96.18
2019-02-02T16:03:19.088Z,100.00
2019-02-02T16:13:03.294Z,100.00
2019-02-02T16:15:35.156Z,100.00
2019-02-02T16:18:05.525Z,100.00
2019-02-02T16:47:19.823Z,100.00
2019-02-02T16:49:49.751Z,100.00
2019-02-02T17:14:12.601Z,100.00
2019-02-02T17:16:42.516Z,100.00
2019-02-02T17:41:04.392Z,100.00
2019-02-02T17:50:35.440Z,100.00
2019-02-02T17:53:05.915Z,100.00
2019-02-02T17:55:36.100Z,100.00
2019-02-02T17:58:06.262Z,100.00
2019-02-02T18:00:51.849Z,100.00
2019-02-02T18:03:22.014Z,100.00
2019-02-02T18:05:51.939Z,100.00
2019-02-02T18:08:21.888Z,100.00
2019-02-02T18:14:36.961Z,100.00
2019-02-02T18:17:07.497Z,100.00
2019-02-02T18:26:20.293Z,100.00
2019-02-02T18:47:11.166Z,100.00
2019-02-02T19:00:13.744Z,100.00
2019-02-02T19:02:44.279Z,100.00
2019-02-02T19:05:14.890Z,100.00
2019-02-02T19:11:35.704Z,100.00
2019-02-02T19:14:05.878Z,100.00
2019-02-02T19:16:36.159Z,100.00
2019-02-02T19:19:06.684Z,100.00
2019-02-02T19:25:21.577Z,100.00
2019-02-02T19:37:11.531Z,100.00
2019-02-02T19:39:44.847Z,100.00
2019-02-02T19:42:13.316Z,100.00
2019-02-02T19:48:33.062Z,100.00
2019-02-02T19:51:03.230Z,100.00
2019-02-02T19:53:33.888Z,100.00
2019-02-02T19:56:03.856Z,100.00
2019-02-02T19:58:34.063Z,100.00
2019-02-02T20:04:55.377Z,100.00
2019-02-02T20:17:47.143Z,100.00
2019-02-02T20:20:20.589Z,100.00
2019-02-02T20:29:36.589Z,100.00
2019-02-02T20:32:06.639Z,100.00
2019-02-02T20:34:36.898Z,100.00
2019-02-02T20:37:07.108Z,100.00
2019-02-02T20:39:37.319Z,100.00
2019-02-02T20:42:07.493Z,100.00
2019-02-02T20:44:37.518Z,100.00
2019-02-02T20:47:08.397Z,100.00
2019-02-02T20:49:38.590Z,100.00
2019-02-02T21:03:35.816Z,100.00
2019-02-02T21:06:05.950Z,100.00
2019-02-02T21:08:36.440Z,100.00
2019-02-02T21:11:07.671Z,100.00
2019-02-02T21:13:37.634Z,100.00
2019-02-02T21:16:07.949Z,100.00
2019-02-02T21:18:38.977Z,100.00
2019-02-02T21:21:09.133Z,100.00
2019-02-02T21:23:39.705Z,100.00
2019-02-02T21:26:09.995Z,100.00
2019-02-02T21:32:31.950Z,100.00
2019-02-02T21:45:29.950Z,100.00
2019-02-02T21:47:59.932Z,100.00
2019-02-02T21:50:30.010Z,100.00
2019-02-02T21:53:00.199Z,100.00
2019-02-02T21:59:21.076Z,100.00
2019-02-02T22:01:51.001Z,100.00
2019-02-02T22:04:20.958Z,100.00
2019-02-02T22:06:51.087Z,100.00
2019-02-02T22:13:12.201Z,100.00
2019-02-02T22:23:01.545Z,100.00
2019-02-02T22:25:32.140Z,100.00
2019-02-02T22:34:40.974Z,100.00
2019-02-02T22:37:10.966Z,100.00
2019-02-02T22:39:41.222Z,100.00
2019-02-02T22:42:11.181Z,100.00
2019-02-02T22:44:41.091Z,100.00
2019-02-02T22:47:11.815Z,100.00
2019-02-02T22:49:41.751Z,100.00
2019-02-02T22:52:11.678Z,100.00
2019-02-02T23:17:59.886Z,100.00
2019-02-02T23:20:33.379Z,100.00
2019-02-02T23:23:03.563Z,100.00
2019-02-02T23:25:34.731Z,100.00
2019-02-02T23:28:04.908Z,100.00
2019-02-02T23:30:35.207Z,100.00
2019-02-02T23:33:05.260Z,100.00
2019-02-02T23:35:35.515Z,100.00
2019-02-02T23:38:05.587Z,100.00
2019-02-02T23:40:36.197Z,100.00
